sensor_id;sensor_type;location;lat;lon;timestamp;P1;durP1;ratioP1;P2;durP2;ratioP2
64361;SDS011;50685;53.346;-6.296;2023-04-09T00:01:12;15.45;;;3.97;;
64361;SDS011;50685;53.346;-6.296;2023-04-09T00:03:37;5.68;;;1.60;;
64361;SDS011;50685;53.346;-6.296;2023-04-09T00:06:03;9.00;;;3.33;;
64361;SDS011;50685;53.346;-6.296;2023-04-09T00:08:33;4.82;;;1.92;;
64361;SDS011;50685;53.346;-6.296;2023-04-09T00:10:58;6.93;;;1.88;;
64361;SDS011;50685;53.346;-6.296;2023-04-09T00:13:24;3.83;;;1.67;;
64361;SDS011;50685;53.346;-6.296;2023-04-09T00:15:50;6.85;;;1.35;;
64361;SDS011;50685;53.346;-6.296;2023-04-09T00:18:16;7.03;;;1.83;;
64361;SDS011;50685;53.346;-6.296;2023-04-09T00:20:42;5.75;;;1.95;;
64361;SDS011;50685;53.346;-6.296;2023-04-09T00:23:10;3.17;;;1.70;;
64361;SDS011;50685;53.346;-6.296;2023-04-09T00:25:35;4.47;;;1.65;;
64361;SDS011;50685;53.346;-6.296;2023-04-09T00:28:01;7.15;;;1.92;;
64361;SDS011;50685;53.346;-6.296;2023-04-09T00:30:29;3.10;;;1.58;;
64361;SDS011;50685;53.346;-6.296;2023-04-09T00:32:55;12.23;;;2.17;;
64361;SDS011;50685;53.346;-6.296;2023-04-09T00:35:23;5.32;;;1.67;;
64361;SDS011;50685;53.346;-6.296;2023-04-09T00:37:52;4.82;;;2.03;;
64361;SDS011;50685;53.346;-6.296;2023-04-09T00:40:17;6.70;;;2.20;;
64361;SDS011;50685;53.346;-6.296;2023-04-09T00:42:43;5.22;;;1.95;;
64361;SDS011;50685;53.346;-6.296;2023-04-09T00:45:09;4.13;;;1.80;;
64361;SDS011;50685;53.346;-6.296;2023-04-09T00:47:34;13.55;;;1.90;;
64361;SDS011;50685;53.346;-6.296;2023-04-09T00:50:00;9.10;;;2.10;;
64361;SDS011;50685;53.346;-6.296;2023-04-09T00:52:27;7.03;;;2.30;;
64361;SDS011;50685;53.346;-6.296;2023-04-09T00:54:54;6.22;;;2.05;;
64361;SDS011;50685;53.346;-6.296;2023-04-09T00:57:22;3.78;;;1.90;;
64361;SDS011;50685;53.346;-6.296;2023-04-09T00:59:50;8.55;;;2.15;;
64361;SDS011;50685;53.346;-6.296;2023-04-09T01:02:16;8.23;;;2.15;;
64361;SDS011;50685;53.346;-6.296;2023-04-09T01:04:42;4.90;;;1.98;;
64361;SDS011;50685;53.346;-6.296;2023-04-09T01:07:30;8.25;;;2.20;;
64361;SDS011;50685;53.346;-6.296;2023-04-09T01:13:11;6.72;;;2.58;;
64361;SDS011;50685;53.346;-6.296;2023-04-09T01:15:45;9.73;;;3.13;;
64361;SDS011;50685;53.346;-6.296;2023-04-09T01:21:13;8.10;;;2.13;;
64361;SDS011;50685;53.346;-6.296;2023-04-09T01:23:46;13.68;;;3.30;;
64361;SDS011;50685;53.346;-6.296;2023-04-09T01:26:38;8.20;;;2.33;;
64361;SDS011;50685;53.346;-6.296;2023-04-09T01:29:16;6.90;;;2.47;;
64361;SDS011;50685;53.346;-6.296;2023-04-09T01:31:44;8.52;;;2.50;;
64361;SDS011;50685;53.346;-6.296;2023-04-09T01:34:10;6.55;;;2.22;;
64361;SDS011;50685;53.346;-6.296;2023-04-09T01:36:38;7.22;;;2.88;;
64361;SDS011;50685;53.346;-6.296;2023-04-09T01:39:06;5.43;;;2.20;;
64361;SDS011;50685;53.346;-6.296;2023-04-09T01:41:33;10.15;;;2.72;;
64361;SDS011;50685;53.346;-6.296;2023-04-09T01:44:00;7.68;;;3.53;;
64361;SDS011;50685;53.346;-6.296;2023-04-09T01:46:28;7.10;;;2.70;;
64361;SDS011;50685;53.346;-6.296;2023-04-09T01:48:54;8.82;;;3.00;;
64361;SDS011;50685;53.346;-6.296;2023-04-09T01:51:21;6.28;;;3.03;;
64361;SDS011;50685;53.346;-6.296;2023-04-09T01:53:47;6.60;;;2.70;;
64361;SDS011;50685;53.346;-6.296;2023-04-09T01:56:13;8.10;;;2.58;;
64361;SDS011;50685;53.346;-6.296;2023-04-09T01:58:38;12.65;;;2.50;;
64361;SDS011;50685;53.346;-6.296;2023-04-09T02:03:48;8.23;;;2.80;;
64361;SDS011;50685;53.346;-6.296;2023-04-09T02:06:24;7.40;;;2.60;;
64361;SDS011;50685;53.346;-6.296;2023-04-09T02:09:06;6.75;;;2.53;;
64361;SDS011;50685;53.346;-6.296;2023-04-09T02:11:33;6.93;;;2.30;;
64361;SDS011;50685;53.346;-6.296;2023-04-09T02:14:01;6.30;;;2.10;;
64361;SDS011;50685;53.346;-6.296;2023-04-09T02:16:37;8.27;;;2.38;;
64361;SDS011;50685;53.346;-6.296;2023-04-09T02:19:04;10.07;;;2.40;;
64361;SDS011;50685;53.346;-6.296;2023-04-09T02:21:32;10.23;;;2.13;;
64361;SDS011;50685;53.346;-6.296;2023-04-09T02:23:57;10.60;;;2.15;;
64361;SDS011;50685;53.346;-6.296;2023-04-09T02:26:23;13.40;;;2.33;;
64361;SDS011;50685;53.346;-6.296;2023-04-09T02:28:51;9.75;;;2.13;;
64361;SDS011;50685;53.346;-6.296;2023-04-09T02:31:22;13.00;;;2.60;;
64361;SDS011;50685;53.346;-6.296;2023-04-09T02:33:48;5.88;;;1.75;;
64361;SDS011;50685;53.346;-6.296;2023-04-09T02:36:14;10.35;;;2.33;;
64361;SDS011;50685;53.346;-6.296;2023-04-09T02:38:43;9.50;;;1.98;;
64361;SDS011;50685;53.346;-6.296;2023-04-09T02:41:12;8.23;;;1.63;;
64361;SDS011;50685;53.346;-6.296;2023-04-09T02:43:40;11.32;;;2.72;;
64361;SDS011;50685;53.346;-6.296;2023-04-09T02:46:06;9.02;;;2.05;;
64361;SDS011;50685;53.346;-6.296;2023-04-09T02:48:32;12.93;;;2.90;;
64361;SDS011;50685;53.346;-6.296;2023-04-09T02:50:57;12.43;;;3.30;;
64361;SDS011;50685;53.346;-6.296;2023-04-09T02:53:23;13.27;;;2.63;;
64361;SDS011;50685;53.346;-6.296;2023-04-09T02:55:49;11.52;;;2.33;;
64361;SDS011;50685;53.346;-6.296;2023-04-09T02:58:20;6.68;;;1.48;;
64361;SDS011;50685;53.346;-6.296;2023-04-09T03:00:45;6.03;;;2.38;;
64361;SDS011;50685;53.346;-6.296;2023-04-09T03:03:11;8.88;;;1.77;;
64361;SDS011;50685;53.346;-6.296;2023-04-09T03:05:39;11.63;;;2.03;;
64361;SDS011;50685;53.346;-6.296;2023-04-09T03:08:05;6.85;;;2.40;;
64361;SDS011;50685;53.346;-6.296;2023-04-09T03:10:30;4.32;;;1.95;;
64361;SDS011;50685;53.346;-6.296;2023-04-09T03:12:59;3.55;;;1.80;;
64361;SDS011;50685;53.346;-6.296;2023-04-09T03:15:24;7.72;;;1.63;;
64361;SDS011;50685;53.346;-6.296;2023-04-09T03:17:50;10.27;;;2.33;;
64361;SDS011;50685;53.346;-6.296;2023-04-09T03:20:16;9.80;;;2.05;;
64361;SDS011;50685;53.346;-6.296;2023-04-09T03:22:41;7.43;;;1.70;;
64361;SDS011;50685;53.346;-6.296;2023-04-09T03:25:07;9.20;;;1.73;;
64361;SDS011;50685;53.346;-6.296;2023-04-09T03:27:36;12.13;;;1.85;;
64361;SDS011;50685;53.346;-6.296;2023-04-09T03:30:01;7.53;;;1.73;;
64361;SDS011;50685;53.346;-6.296;2023-04-09T03:32:27;14.13;;;2.30;;
64361;SDS011;50685;53.346;-6.296;2023-04-09T03:34:53;10.82;;;2.08;;
64361;SDS011;50685;53.346;-6.296;2023-04-09T03:37:18;11.95;;;2.15;;
64361;SDS011;50685;53.346;-6.296;2023-04-09T03:39:47;7.30;;;1.85;;
64361;SDS011;50685;53.346;-6.296;2023-04-09T03:42:13;7.63;;;1.75;;
64361;SDS011;50685;53.346;-6.296;2023-04-09T03:44:41;12.13;;;2.10;;
64361;SDS011;50685;53.346;-6.296;2023-04-09T03:47:07;7.38;;;2.30;;
64361;SDS011;50685;53.346;-6.296;2023-04-09T03:49:33;15.60;;;2.15;;
64361;SDS011;50685;53.346;-6.296;2023-04-09T03:52:02;10.15;;;2.45;;
64361;SDS011;50685;53.346;-6.296;2023-04-09T03:54:28;11.43;;;2.70;;
64361;SDS011;50685;53.346;-6.296;2023-04-09T03:56:54;8.82;;;1.90;;
64361;SDS011;50685;53.346;-6.296;2023-04-09T03:59:20;8.77;;;2.08;;
64361;SDS011;50685;53.346;-6.296;2023-04-09T04:01:46;10.13;;;3.00;;
64361;SDS011;50685;53.346;-6.296;2023-04-09T04:04:12;7.75;;;2.22;;
64361;SDS011;50685;53.346;-6.296;2023-04-09T04:06:38;8.70;;;2.35;;
64361;SDS011;50685;53.346;-6.296;2023-04-09T04:09:12;10.32;;;2.40;;
64361;SDS011;50685;53.346;-6.296;2023-04-09T04:11:41;9.55;;;3.33;;
64361;SDS011;50685;53.346;-6.296;2023-04-09T04:14:06;11.43;;;3.05;;
64361;SDS011;50685;53.346;-6.296;2023-04-09T04:16:32;6.43;;;2.42;;
64361;SDS011;50685;53.346;-6.296;2023-04-09T04:18:58;16.65;;;4.00;;
64361;SDS011;50685;53.346;-6.296;2023-04-09T04:21:23;8.98;;;2.85;;
64361;SDS011;50685;53.346;-6.296;2023-04-09T04:23:49;9.15;;;2.30;;
64361;SDS011;50685;53.346;-6.296;2023-04-09T04:26:14;22.98;;;3.30;;
64361;SDS011;50685;53.346;-6.296;2023-04-09T04:28:46;8.98;;;3.17;;
64361;SDS011;50685;53.346;-6.296;2023-04-09T04:31:13;7.03;;;2.90;;
64361;SDS011;50685;53.346;-6.296;2023-04-09T04:33:40;12.80;;;3.38;;
64361;SDS011;50685;53.346;-6.296;2023-04-09T04:36:07;17.67;;;3.53;;
64361;SDS011;50685;53.346;-6.296;2023-04-09T04:38:41;11.75;;;2.75;;
64361;SDS011;50685;53.346;-6.296;2023-04-09T04:41:13;14.52;;;4.80;;
64361;SDS011;50685;53.346;-6.296;2023-04-09T04:43:38;13.10;;;3.53;;
64361;SDS011;50685;53.346;-6.296;2023-04-09T04:46:05;18.05;;;5.20;;
64361;SDS011;50685;53.346;-6.296;2023-04-09T04:48:33;6.75;;;3.30;;
64361;SDS011;50685;53.346;-6.296;2023-04-09T04:51:00;14.60;;;3.13;;
64361;SDS011;50685;53.346;-6.296;2023-04-09T04:53:32;11.07;;;2.65;;
64361;SDS011;50685;53.346;-6.296;2023-04-09T04:55:57;11.13;;;2.92;;
64361;SDS011;50685;53.346;-6.296;2023-04-09T04:58:23;15.13;;;3.97;;
64361;SDS011;50685;53.346;-6.296;2023-04-09T05:00:52;9.20;;;3.15;;
64361;SDS011;50685;53.346;-6.296;2023-04-09T05:03:17;13.43;;;2.90;;
64361;SDS011;50685;53.346;-6.296;2023-04-09T05:05:43;12.68;;;2.95;;
64361;SDS011;50685;53.346;-6.296;2023-04-09T05:08:10;13.73;;;3.10;;
64361;SDS011;50685;53.346;-6.296;2023-04-09T05:10:35;10.63;;;3.10;;
64361;SDS011;50685;53.346;-6.296;2023-04-09T05:13:01;9.02;;;2.90;;
64361;SDS011;50685;53.346;-6.296;2023-04-09T05:15:36;13.40;;;3.17;;
64361;SDS011;50685;53.346;-6.296;2023-04-09T05:18:06;11.32;;;2.75;;
64361;SDS011;50685;53.346;-6.296;2023-04-09T05:20:35;7.75;;;2.53;;
64361;SDS011;50685;53.346;-6.296;2023-04-09T05:23:00;12.25;;;3.10;;
64361;SDS011;50685;53.346;-6.296;2023-04-09T05:25:26;11.30;;;3.08;;
64361;SDS011;50685;53.346;-6.296;2023-04-09T05:27:52;11.45;;;2.40;;
64361;SDS011;50685;53.346;-6.296;2023-04-09T05:30:17;11.13;;;2.85;;
64361;SDS011;50685;53.346;-6.296;2023-04-09T05:32:43;11.98;;;2.80;;
64361;SDS011;50685;53.346;-6.296;2023-04-09T05:35:08;8.30;;;2.60;;
64361;SDS011;50685;53.346;-6.296;2023-04-09T05:37:34;14.15;;;2.88;;
64361;SDS011;50685;53.346;-6.296;2023-04-09T05:39:59;13.43;;;2.78;;
64361;SDS011;50685;53.346;-6.296;2023-04-09T05:42:27;7.75;;;3.00;;
64361;SDS011;50685;53.346;-6.296;2023-04-09T05:44:59;12.85;;;2.58;;
64361;SDS011;50685;53.346;-6.296;2023-04-09T05:47:24;13.45;;;2.55;;
64361;SDS011;50685;53.346;-6.296;2023-04-09T05:49:50;11.30;;;3.30;;
64361;SDS011;50685;53.346;-6.296;2023-04-09T05:52:18;12.77;;;2.58;;
64361;SDS011;50685;53.346;-6.296;2023-04-09T05:54:45;12.45;;;3.00;;
64361;SDS011;50685;53.346;-6.296;2023-04-09T05:57:11;6.43;;;3.08;;
64361;SDS011;50685;53.346;-6.296;2023-04-09T05:59:36;17.13;;;3.40;;
64361;SDS011;50685;53.346;-6.296;2023-04-09T06:02:09;19.48;;;3.17;;
64361;SDS011;50685;53.346;-6.296;2023-04-09T06:04:35;16.38;;;4.13;;
64361;SDS011;50685;53.346;-6.296;2023-04-09T06:07:01;14.70;;;4.07;;
64361;SDS011;50685;53.346;-6.296;2023-04-09T06:09:26;10.20;;;2.92;;
64361;SDS011;50685;53.346;-6.296;2023-04-09T06:11:52;14.77;;;3.53;;
64361;SDS011;50685;53.346;-6.296;2023-04-09T06:14:17;18.15;;;4.10;;
64361;SDS011;50685;53.346;-6.296;2023-04-09T06:16:43;12.30;;;3.00;;
64361;SDS011;50685;53.346;-6.296;2023-04-09T06:19:08;17.83;;;4.85;;
64361;SDS011;50685;53.346;-6.296;2023-04-09T06:21:36;13.38;;;3.55;;
64361;SDS011;50685;53.346;-6.296;2023-04-09T06:24:08;17.40;;;3.63;;
64361;SDS011;50685;53.346;-6.296;2023-04-09T06:26:34;11.98;;;3.67;;
64361;SDS011;50685;53.346;-6.296;2023-04-09T06:29:00;12.38;;;3.92;;
64361;SDS011;50685;53.346;-6.296;2023-04-09T06:31:26;8.90;;;3.65;;
64361;SDS011;50685;53.346;-6.296;2023-04-09T06:33:51;17.20;;;4.00;;
64361;SDS011;50685;53.346;-6.296;2023-04-09T06:36:18;8.13;;;3.10;;
64361;SDS011;50685;53.346;-6.296;2023-04-09T06:38:44;15.93;;;3.53;;
64361;SDS011;50685;53.346;-6.296;2023-04-09T06:41:09;6.50;;;3.17;;
64361;SDS011;50685;53.346;-6.296;2023-04-09T06:43:36;11.98;;;3.17;;
64361;SDS011;50685;53.346;-6.296;2023-04-09T06:46:02;10.82;;;3.17;;
64361;SDS011;50685;53.346;-6.296;2023-04-09T06:48:27;14.35;;;4.88;;
64361;SDS011;50685;53.346;-6.296;2023-04-09T06:50:56;13.75;;;3.63;;
64361;SDS011;50685;53.346;-6.296;2023-04-09T06:53:21;18.08;;;3.80;;
64361;SDS011;50685;53.346;-6.296;2023-04-09T06:55:47;23.88;;;6.32;;
64361;SDS011;50685;53.346;-6.296;2023-04-09T06:58:12;13.93;;;4.47;;
64361;SDS011;50685;53.346;-6.296;2023-04-09T07:00:38;14.02;;;3.75;;
64361;SDS011;50685;53.346;-6.296;2023-04-09T07:03:03;13.25;;;4.53;;
64361;SDS011;50685;53.346;-6.296;2023-04-09T07:05:31;10.13;;;4.18;;
64361;SDS011;50685;53.346;-6.296;2023-04-09T07:07:57;14.07;;;3.75;;
64361;SDS011;50685;53.346;-6.296;2023-04-09T07:10:22;13.93;;;3.53;;
64361;SDS011;50685;53.346;-6.296;2023-04-09T07:12:48;11.90;;;3.63;;
64361;SDS011;50685;53.346;-6.296;2023-04-09T07:15:16;11.82;;;4.28;;
64361;SDS011;50685;53.346;-6.296;2023-04-09T07:17:41;14.15;;;3.47;;
64361;SDS011;50685;53.346;-6.296;2023-04-09T07:20:07;15.23;;;3.97;;
64361;SDS011;50685;53.346;-6.296;2023-04-09T07:22:36;12.20;;;3.80;;
64361;SDS011;50685;53.346;-6.296;2023-04-09T07:25:01;15.65;;;3.53;;
64361;SDS011;50685;53.346;-6.296;2023-04-09T07:27:27;18.85;;;5.13;;
64361;SDS011;50685;53.346;-6.296;2023-04-09T07:29:54;18.45;;;4.22;;
64361;SDS011;50685;53.346;-6.296;2023-04-09T07:32:20;9.13;;;3.55;;
64361;SDS011;50685;53.346;-6.296;2023-04-09T07:34:46;17.27;;;4.78;;
64361;SDS011;50685;53.346;-6.296;2023-04-09T07:37:12;13.10;;;3.60;;
64361;SDS011;50685;53.346;-6.296;2023-04-09T07:39:37;18.27;;;4.35;;
64361;SDS011;50685;53.346;-6.296;2023-04-09T07:42:03;12.27;;;4.38;;
64361;SDS011;50685;53.346;-6.296;2023-04-09T07:44:33;10.07;;;4.03;;
64361;SDS011;50685;53.346;-6.296;2023-04-09T07:47:02;16.33;;;4.40;;
64361;SDS011;50685;53.346;-6.296;2023-04-09T07:49:28;10.85;;;4.00;;
64361;SDS011;50685;53.346;-6.296;2023-04-09T07:51:55;7.80;;;3.85;;
64361;SDS011;50685;53.346;-6.296;2023-04-09T07:54:21;16.17;;;4.20;;
64361;SDS011;50685;53.346;-6.296;2023-04-09T07:56:47;13.45;;;4.00;;
64361;SDS011;50685;53.346;-6.296;2023-04-09T07:59:12;15.38;;;3.92;;
64361;SDS011;50685;53.346;-6.296;2023-04-09T08:01:43;17.38;;;4.20;;
64361;SDS011;50685;53.346;-6.296;2023-04-09T08:04:09;17.48;;;4.68;;
64361;SDS011;50685;53.346;-6.296;2023-04-09T08:06:36;16.13;;;4.22;;
64361;SDS011;50685;53.346;-6.296;2023-04-09T08:09:02;12.73;;;4.00;;
64361;SDS011;50685;53.346;-6.296;2023-04-09T08:11:28;17.55;;;3.83;;
64361;SDS011;50685;53.346;-6.296;2023-04-09T08:13:57;9.80;;;4.10;;
64361;SDS011;50685;53.346;-6.296;2023-04-09T08:16:25;11.45;;;3.10;;
64361;SDS011;50685;53.346;-6.296;2023-04-09T08:18:51;16.25;;;3.70;;
64361;SDS011;50685;53.346;-6.296;2023-04-09T08:21:17;18.00;;;4.35;;
64361;SDS011;50685;53.346;-6.296;2023-04-09T08:23:43;19.13;;;3.90;;
64361;SDS011;50685;53.346;-6.296;2023-04-09T08:26:11;9.60;;;2.97;;
64361;SDS011;50685;53.346;-6.296;2023-04-09T08:28:36;14.85;;;4.00;;
64361;SDS011;50685;53.346;-6.296;2023-04-09T08:31:02;15.98;;;4.00;;
64361;SDS011;50685;53.346;-6.296;2023-04-09T08:33:30;12.60;;;4.30;;
64361;SDS011;50685;53.346;-6.296;2023-04-09T08:35:56;14.43;;;3.88;;
64361;SDS011;50685;53.346;-6.296;2023-04-09T08:38:24;11.73;;;4.50;;
64361;SDS011;50685;53.346;-6.296;2023-04-09T08:40:50;12.43;;;4.20;;
64361;SDS011;50685;53.346;-6.296;2023-04-09T08:43:18;10.95;;;4.05;;
64361;SDS011;50685;53.346;-6.296;2023-04-09T08:45:51;9.13;;;3.80;;
64361;SDS011;50685;53.346;-6.296;2023-04-09T08:48:17;13.02;;;3.47;;
64361;SDS011;50685;53.346;-6.296;2023-04-09T08:50:47;13.10;;;4.30;;
64361;SDS011;50685;53.346;-6.296;2023-04-09T08:53:13;11.43;;;3.92;;
64361;SDS011;50685;53.346;-6.296;2023-04-09T08:55:43;16.13;;;4.35;;
64361;SDS011;50685;53.346;-6.296;2023-04-09T08:58:10;12.75;;;5.25;;
64361;SDS011;50685;53.346;-6.296;2023-04-09T09:00:38;9.18;;;4.10;;
64361;SDS011;50685;53.346;-6.296;2023-04-09T09:03:10;11.07;;;4.25;;
64361;SDS011;50685;53.346;-6.296;2023-04-09T09:05:39;11.80;;;4.35;;
64361;SDS011;50685;53.346;-6.296;2023-04-09T09:08:09;13.30;;;3.80;;
64361;SDS011;50685;53.346;-6.296;2023-04-09T09:10:40;17.00;;;4.22;;
64361;SDS011;50685;53.346;-6.296;2023-04-09T09:15:53;6.72;;;3.55;;
64361;SDS011;50685;53.346;-6.296;2023-04-09T09:18:39;9.23;;;3.72;;
64361;SDS011;50685;53.346;-6.296;2023-04-09T09:21:10;11.73;;;3.90;;
64361;SDS011;50685;53.346;-6.296;2023-04-09T09:23:43;8.10;;;3.88;;
64361;SDS011;50685;53.346;-6.296;2023-04-09T09:26:20;10.02;;;4.63;;
64361;SDS011;50685;53.346;-6.296;2023-04-09T09:28:48;19.00;;;4.18;;
64361;SDS011;50685;53.346;-6.296;2023-04-09T09:31:15;15.70;;;5.05;;
64361;SDS011;50685;53.346;-6.296;2023-04-09T09:33:42;16.50;;;4.93;;
64361;SDS011;50685;53.346;-6.296;2023-04-09T09:36:08;11.40;;;4.97;;
64361;SDS011;50685;53.346;-6.296;2023-04-09T09:38:50;14.57;;;5.13;;
64361;SDS011;50685;53.346;-6.296;2023-04-09T09:41:18;13.93;;;4.80;;
64361;SDS011;50685;53.346;-6.296;2023-04-09T09:43:47;19.85;;;4.57;;
64361;SDS011;50685;53.346;-6.296;2023-04-09T09:46:16;12.00;;;4.30;;
64361;SDS011;50685;53.346;-6.296;2023-04-09T09:48:45;14.52;;;4.28;;
64361;SDS011;50685;53.346;-6.296;2023-04-09T09:51:11;11.02;;;4.53;;
64361;SDS011;50685;53.346;-6.296;2023-04-09T09:53:38;10.23;;;5.43;;
64361;SDS011;50685;53.346;-6.296;2023-04-09T09:56:11;10.35;;;5.05;;
64361;SDS011;50685;53.346;-6.296;2023-04-09T10:01:32;19.08;;;4.53;;
64361;SDS011;50685;53.346;-6.296;2023-04-09T10:04:01;11.30;;;4.97;;
64361;SDS011;50685;53.346;-6.296;2023-04-09T10:06:37;17.88;;;6.25;;
64361;SDS011;50685;53.346;-6.296;2023-04-09T10:09:07;10.68;;;5.25;;
64361;SDS011;50685;53.346;-6.296;2023-04-09T10:11:38;12.32;;;5.30;;
64361;SDS011;50685;53.346;-6.296;2023-04-09T10:14:08;10.98;;;4.80;;
64361;SDS011;50685;53.346;-6.296;2023-04-09T10:16:34;18.00;;;5.55;;
64361;SDS011;50685;53.346;-6.296;2023-04-09T10:19:00;12.85;;;5.55;;
64361;SDS011;50685;53.346;-6.296;2023-04-09T10:21:51;20.23;;;5.43;;
64361;SDS011;50685;53.346;-6.296;2023-04-09T10:24:22;16.70;;;5.95;;
64361;SDS011;50685;53.346;-6.296;2023-04-09T10:26:52;12.88;;;5.30;;
64361;SDS011;50685;53.346;-6.296;2023-04-09T10:29:21;17.88;;;5.88;;
64361;SDS011;50685;53.346;-6.296;2023-04-09T10:31:53;13.48;;;5.75;;
64361;SDS011;50685;53.346;-6.296;2023-04-09T10:34:30;12.00;;;5.55;;
64361;SDS011;50685;53.346;-6.296;2023-04-09T10:37:24;21.92;;;6.85;;
64361;SDS011;50685;53.346;-6.296;2023-04-09T10:39:52;19.40;;;6.13;;
64361;SDS011;50685;53.346;-6.296;2023-04-09T10:45:37;20.90;;;6.88;;
64361;SDS011;50685;53.346;-6.296;2023-04-09T10:48:10;26.58;;;6.85;;
64361;SDS011;50685;53.346;-6.296;2023-04-09T10:50:38;19.85;;;6.47;;
64361;SDS011;50685;53.346;-6.296;2023-04-09T10:53:24;25.80;;;7.45;;
64361;SDS011;50685;53.346;-6.296;2023-04-09T10:55:53;14.82;;;6.32;;
64361;SDS011;50685;53.346;-6.296;2023-04-09T10:58:22;18.42;;;6.13;;
64361;SDS011;50685;53.346;-6.296;2023-04-09T11:00:48;29.38;;;7.10;;
64361;SDS011;50685;53.346;-6.296;2023-04-09T11:03:25;13.88;;;6.63;;
64361;SDS011;50685;53.346;-6.296;2023-04-09T11:08:28;19.60;;;6.60;;
64361;SDS011;50685;53.346;-6.296;2023-04-09T11:10:55;16.58;;;6.25;;
64361;SDS011;50685;53.346;-6.296;2023-04-09T11:13:25;25.30;;;7.25;;
64361;SDS011;50685;53.346;-6.296;2023-04-09T11:15:52;13.13;;;5.32;;
64361;SDS011;50685;53.346;-6.296;2023-04-09T11:18:22;21.88;;;6.18;;
64361;SDS011;50685;53.346;-6.296;2023-04-09T11:20:56;17.08;;;6.47;;
64361;SDS011;50685;53.346;-6.296;2023-04-09T11:23:29;17.67;;;7.35;;
64361;SDS011;50685;53.346;-6.296;2023-04-09T11:25:56;24.70;;;6.05;;
64361;SDS011;50685;53.346;-6.296;2023-04-09T11:28:22;15.98;;;5.38;;
64361;SDS011;50685;53.346;-6.296;2023-04-09T11:30:51;16.05;;;5.45;;
64361;SDS011;50685;53.346;-6.296;2023-04-09T11:33:17;15.27;;;4.75;;
64361;SDS011;50685;53.346;-6.296;2023-04-09T11:35:46;14.38;;;5.53;;
64361;SDS011;50685;53.346;-6.296;2023-04-09T11:38:17;17.42;;;4.93;;
64361;SDS011;50685;53.346;-6.296;2023-04-09T11:40:43;11.13;;;3.80;;
64361;SDS011;50685;53.346;-6.296;2023-04-09T11:43:12;12.60;;;4.43;;
64361;SDS011;50685;53.346;-6.296;2023-04-09T11:45:40;15.05;;;4.55;;
64361;SDS011;50685;53.346;-6.296;2023-04-09T11:48:06;16.02;;;5.80;;
64361;SDS011;50685;53.346;-6.296;2023-04-09T11:50:37;17.65;;;4.25;;
64361;SDS011;50685;53.346;-6.296;2023-04-09T11:53:19;17.25;;;5.00;;
64361;SDS011;50685;53.346;-6.296;2023-04-09T11:55:49;10.43;;;4.03;;
64361;SDS011;50685;53.346;-6.296;2023-04-09T11:58:16;13.65;;;3.80;;
64361;SDS011;50685;53.346;-6.296;2023-04-09T12:00:41;12.30;;;4.55;;
64361;SDS011;50685;53.346;-6.296;2023-04-09T12:03:08;14.15;;;5.75;;
64361;SDS011;50685;53.346;-6.296;2023-04-09T12:05:35;17.45;;;4.63;;
64361;SDS011;50685;53.346;-6.296;2023-04-09T12:08:04;13.05;;;3.83;;
64361;SDS011;50685;53.346;-6.296;2023-04-09T12:10:35;11.70;;;3.72;;
64361;SDS011;50685;53.346;-6.296;2023-04-09T12:13:03;13.70;;;4.20;;
64361;SDS011;50685;53.346;-6.296;2023-04-09T12:15:34;11.75;;;4.68;;
64361;SDS011;50685;53.346;-6.296;2023-04-09T12:18:13;12.35;;;4.63;;
64361;SDS011;50685;53.346;-6.296;2023-04-09T12:20:39;15.65;;;4.50;;
64361;SDS011;50685;53.346;-6.296;2023-04-09T12:23:08;20.35;;;4.53;;
64361;SDS011;50685;53.346;-6.296;2023-04-09T12:25:53;12.52;;;3.35;;
64361;SDS011;50685;53.346;-6.296;2023-04-09T12:28:19;15.82;;;3.53;;
64361;SDS011;50685;53.346;-6.296;2023-04-09T12:30:45;19.17;;;3.90;;
64361;SDS011;50685;53.346;-6.296;2023-04-09T12:33:12;13.57;;;3.80;;
64361;SDS011;50685;53.346;-6.296;2023-04-09T12:35:37;19.42;;;4.15;;
64361;SDS011;50685;53.346;-6.296;2023-04-09T12:38:03;24.73;;;10.73;;
64361;SDS011;50685;53.346;-6.296;2023-04-09T12:40:29;13.82;;;4.45;;
64361;SDS011;50685;53.346;-6.296;2023-04-09T12:42:57;22.67;;;5.70;;
64361;SDS011;50685;53.346;-6.296;2023-04-09T12:45:26;14.98;;;5.70;;
64361;SDS011;50685;53.346;-6.296;2023-04-09T12:47:52;20.13;;;8.82;;
64361;SDS011;50685;53.346;-6.296;2023-04-09T12:50:17;28.20;;;5.07;;
64361;SDS011;50685;53.346;-6.296;2023-04-09T12:52:43;14.55;;;4.65;;
64361;SDS011;50685;53.346;-6.296;2023-04-09T12:55:12;13.55;;;4.50;;
64361;SDS011;50685;53.346;-6.296;2023-04-09T12:57:43;17.80;;;3.53;;
64361;SDS011;50685;53.346;-6.296;2023-04-09T13:00:14;12.50;;;3.95;;
64361;SDS011;50685;53.346;-6.296;2023-04-09T13:02:43;11.63;;;4.07;;
64361;SDS011;50685;53.346;-6.296;2023-04-09T13:05:17;7.13;;;3.10;;
64361;SDS011;50685;53.346;-6.296;2023-04-09T13:07:43;11.48;;;3.28;;
64361;SDS011;50685;53.346;-6.296;2023-04-09T13:10:09;11.90;;;3.15;;
64361;SDS011;50685;53.346;-6.296;2023-04-09T13:12:38;16.50;;;3.38;;
64361;SDS011;50685;53.346;-6.296;2023-04-09T13:15:06;14.70;;;4.00;;
64361;SDS011;50685;53.346;-6.296;2023-04-09T13:17:33;11.45;;;4.63;;
64361;SDS011;50685;53.346;-6.296;2023-04-09T13:20:06;20.85;;;6.18;;
64361;SDS011;50685;53.346;-6.296;2023-04-09T13:22:35;18.10;;;5.18;;
64361;SDS011;50685;53.346;-6.296;2023-04-09T13:25:02;13.88;;;5.22;;
64361;SDS011;50685;53.346;-6.296;2023-04-09T13:27:28;15.93;;;5.40;;
64361;SDS011;50685;53.346;-6.296;2023-04-09T13:29:53;16.95;;;4.35;;
64361;SDS011;50685;53.346;-6.296;2023-04-09T13:32:22;18.85;;;4.95;;
64361;SDS011;50685;53.346;-6.296;2023-04-09T13:34:51;20.27;;;5.00;;
64361;SDS011;50685;53.346;-6.296;2023-04-09T13:37:18;15.88;;;4.82;;
64361;SDS011;50685;53.346;-6.296;2023-04-09T13:39:48;18.95;;;5.43;;
64361;SDS011;50685;53.346;-6.296;2023-04-09T13:42:15;84.78;;;46.97;;
64361;SDS011;50685;53.346;-6.296;2023-04-09T13:44:43;88.45;;;44.63;;
64361;SDS011;50685;53.346;-6.296;2023-04-09T13:47:13;28.13;;;11.30;;
64361;SDS011;50685;53.346;-6.296;2023-04-09T13:49:43;11.90;;;5.43;;
64361;SDS011;50685;53.346;-6.296;2023-04-09T13:52:09;21.50;;;5.05;;
64361;SDS011;50685;53.346;-6.296;2023-04-09T13:54:35;18.50;;;5.35;;
64361;SDS011;50685;53.346;-6.296;2023-04-09T13:57:00;17.40;;;5.80;;
64361;SDS011;50685;53.346;-6.296;2023-04-09T13:59:27;10.77;;;4.28;;
64361;SDS011;50685;53.346;-6.296;2023-04-09T14:01:53;13.57;;;5.68;;
64361;SDS011;50685;53.346;-6.296;2023-04-09T14:04:21;18.05;;;4.47;;
64361;SDS011;50685;53.346;-6.296;2023-04-09T14:06:50;18.55;;;4.93;;
64361;SDS011;50685;53.346;-6.296;2023-04-09T14:09:18;18.48;;;5.75;;
64361;SDS011;50685;53.346;-6.296;2023-04-09T14:11:47;14.02;;;4.10;;
64361;SDS011;50685;53.346;-6.296;2023-04-09T14:14:19;25.17;;;5.38;;
64361;SDS011;50685;53.346;-6.296;2023-04-09T14:16:50;18.88;;;5.50;;
64361;SDS011;50685;53.346;-6.296;2023-04-09T14:19:16;22.85;;;5.90;;
64361;SDS011;50685;53.346;-6.296;2023-04-09T14:21:44;16.88;;;6.50;;
64361;SDS011;50685;53.346;-6.296;2023-04-09T14:24:10;20.88;;;7.05;;
64361;SDS011;50685;53.346;-6.296;2023-04-09T14:26:35;21.10;;;8.65;;
64361;SDS011;50685;53.346;-6.296;2023-04-09T14:29:01;18.85;;;6.13;;
64361;SDS011;50685;53.346;-6.296;2023-04-09T14:31:27;13.05;;;4.70;;
64361;SDS011;50685;53.346;-6.296;2023-04-09T14:33:53;17.13;;;6.32;;
64361;SDS011;50685;53.346;-6.296;2023-04-09T14:36:18;18.92;;;4.18;;
64361;SDS011;50685;53.346;-6.296;2023-04-09T14:38:44;22.08;;;4.30;;
64361;SDS011;50685;53.346;-6.296;2023-04-09T14:41:10;11.20;;;3.97;;
64361;SDS011;50685;53.346;-6.296;2023-04-09T14:43:35;25.15;;;7.22;;
64361;SDS011;50685;53.346;-6.296;2023-04-09T14:46:07;6.60;;;2.78;;
64361;SDS011;50685;53.346;-6.296;2023-04-09T14:48:35;12.32;;;3.55;;
64361;SDS011;50685;53.346;-6.296;2023-04-09T14:51:03;12.52;;;3.08;;